sensor_id;sensor_type;location;lat;lon;timestamp;P1;durP1;ratioP1;P2;durP2;ratioP2
38023;SDS011;23834;48.080;11.682;2024-01-30T00:00:13;4.60;;;4.20;;
38023;SDS011;23834;48.080;11.682;2024-01-30T00:02:39;5.60;;;5.20;;
38023;SDS011;23834;48.080;11.682;2024-01-30T00:05:04;5.97;;;5.47;;
38023;SDS011;23834;48.080;11.682;2024-01-30T00:07:29;5.30;;;4.90;;
38023;SDS011;23834;48.080;11.682;2024-01-30T00:09:54;5.27;;;4.90;;
38023;SDS011;23834;48.080;11.682;2024-01-30T00:12:20;5.47;;;5.07;;
38023;SDS011;23834;48.080;11.682;2024-01-30T00:14:45;6.00;;;5.50;;
38023;SDS011;23834;48.080;11.682;2024-01-30T00:17:10;5.47;;;5.00;;
38023;SDS011;23834;48.080;11.682;2024-01-30T00:19:35;5.63;;;5.17;;
38023;SDS011;23834;48.080;11.682;2024-01-30T00:22:01;5.10;;;4.70;;
38023;SDS011;23834;48.080;11.682;2024-01-30T00:24:26;4.97;;;4.57;;
38023;SDS011;23834;48.080;11.682;2024-01-30T00:26:51;6.07;;;5.57;;
38023;SDS011;23834;48.080;11.682;2024-01-30T00:29:17;5.67;;;5.27;;
38023;SDS011;23834;48.080;11.682;2024-01-30T00:31:44;5.43;;;5.03;;
38023;SDS011;23834;48.080;11.682;2024-01-30T00:34:09;5.53;;;5.10;;
38023;SDS011;23834;48.080;11.682;2024-01-30T00:36:35;5.47;;;5.07;;
38023;SDS011;23834;48.080;11.682;2024-01-30T00:39:00;6.10;;;5.03;;
38023;SDS011;23834;48.080;11.682;2024-01-30T00:41:25;5.43;;;5.03;;
38023;SDS011;23834;48.080;11.682;2024-01-30T00:43:51;5.57;;;5.17;;
38023;SDS011;23834;48.080;11.682;2024-01-30T00:46:17;4.97;;;4.57;;
38023;SDS011;23834;48.080;11.682;2024-01-30T00:48:42;5.27;;;4.87;;
38023;SDS011;23834;48.080;11.682;2024-01-30T00:51:07;5.27;;;4.87;;
38023;SDS011;23834;48.080;11.682;2024-01-30T00:53:32;5.50;;;5.10;;
38023;SDS011;23834;48.080;11.682;2024-01-30T00:55:58;5.37;;;4.97;;
38023;SDS011;23834;48.080;11.682;2024-01-30T00:58:23;5.07;;;4.67;;
38023;SDS011;23834;48.080;11.682;2024-01-30T01:00:48;5.73;;;5.27;;
38023;SDS011;23834;48.080;11.682;2024-01-30T01:03:13;5.47;;;4.97;;
38023;SDS011;23834;48.080;11.682;2024-01-30T01:05:39;5.13;;;4.70;;
38023;SDS011;23834;48.080;11.682;2024-01-30T01:08:04;5.40;;;4.90;;
38023;SDS011;23834;48.080;11.682;2024-01-30T01:10:29;4.73;;;4.33;;
38023;SDS011;23834;48.080;11.682;2024-01-30T01:12:54;5.23;;;4.73;;
38023;SDS011;23834;48.080;11.682;2024-01-30T01:15:19;4.67;;;4.27;;
38023;SDS011;23834;48.080;11.682;2024-01-30T01:17:45;5.40;;;4.90;;
38023;SDS011;23834;48.080;11.682;2024-01-30T01:20:10;4.97;;;4.57;;
38023;SDS011;23834;48.080;11.682;2024-01-30T01:22:37;5.73;;;5.23;;
38023;SDS011;23834;48.080;11.682;2024-01-30T01:25:03;5.20;;;4.70;;
38023;SDS011;23834;48.080;11.682;2024-01-30T01:27:31;5.50;;;5.00;;
38023;SDS011;23834;48.080;11.682;2024-01-30T01:29:57;4.53;;;4.23;;
38023;SDS011;23834;48.080;11.682;2024-01-30T01:32:23;4.80;;;4.40;;
38023;SDS011;23834;48.080;11.682;2024-01-30T01:34:48;4.63;;;4.33;;
38023;SDS011;23834;48.080;11.682;2024-01-30T01:37:13;4.60;;;4.20;;
38023;SDS011;23834;48.080;11.682;2024-01-30T01:39:38;4.10;;;3.80;;
38023;SDS011;23834;48.080;11.682;2024-01-30T01:42:03;4.50;;;4.20;;
38023;SDS011;23834;48.080;11.682;2024-01-30T01:44:29;4.33;;;4.03;;
38023;SDS011;23834;48.080;11.682;2024-01-30T01:46:54;4.00;;;3.70;;
38023;SDS011;23834;48.080;11.682;2024-01-30T01:49:20;4.63;;;4.20;;
38023;SDS011;23834;48.080;11.682;2024-01-30T01:51:46;3.83;;;3.53;;
38023;SDS011;23834;48.080;11.682;2024-01-30T01:54:12;4.20;;;3.90;;
38023;SDS011;23834;48.080;11.682;2024-01-30T01:56:38;4.40;;;4.10;;
38023;SDS011;23834;48.080;11.682;2024-01-30T01:59:05;4.60;;;4.20;;
38023;SDS011;23834;48.080;11.682;2024-01-30T02:01:30;4.03;;;3.80;;
38023;SDS011;23834;48.080;11.682;2024-01-30T02:03:56;5.23;;;3.80;;
38023;SDS011;23834;48.080;11.682;2024-01-30T02:06:21;3.73;;;3.53;;
38023;SDS011;23834;48.080;11.682;2024-01-30T02:08:46;4.20;;;3.90;;
38023;SDS011;23834;48.080;11.682;2024-01-30T02:11:11;3.57;;;3.27;;
38023;SDS011;23834;48.080;11.682;2024-01-30T02:13:37;5.23;;;4.07;;
38023;SDS011;23834;48.080;11.682;2024-01-30T02:16:02;3.90;;;3.50;;
38023;SDS011;23834;48.080;11.682;2024-01-30T02:18:27;4.20;;;3.90;;
38023;SDS011;23834;48.080;11.682;2024-01-30T02:20:53;3.90;;;3.60;;
38023;SDS011;23834;48.080;11.682;2024-01-30T02:23:19;3.83;;;3.53;;
38023;SDS011;23834;48.080;11.682;2024-01-30T02:25:44;4.10;;;3.70;;
38023;SDS011;23834;48.080;11.682;2024-01-30T02:28:10;3.57;;;3.30;;
38023;SDS011;23834;48.080;11.682;2024-01-30T02:30:36;3.47;;;3.17;;
38023;SDS011;23834;48.080;11.682;2024-01-30T02:33:01;3.67;;;3.40;;
38023;SDS011;23834;48.080;11.682;2024-01-30T02:35:26;3.90;;;3.60;;
38023;SDS011;23834;48.080;11.682;2024-01-30T02:37:52;3.90;;;3.40;;
38023;SDS011;23834;48.080;11.682;2024-01-30T02:40:17;3.50;;;3.30;;
38023;SDS011;23834;48.080;11.682;2024-01-30T02:42:42;3.13;;;2.93;;
38023;SDS011;23834;48.080;11.682;2024-01-30T02:45:08;4.37;;;3.97;;
38023;SDS011;23834;48.080;11.682;2024-01-30T02:47:33;3.60;;;3.30;;
38023;SDS011;23834;48.080;11.682;2024-01-30T02:49:58;3.27;;;3.03;;
38023;SDS011;23834;48.080;11.682;2024-01-30T02:52:24;3.57;;;3.30;;
38023;SDS011;23834;48.080;11.682;2024-01-30T02:54:49;3.10;;;2.90;;
38023;SDS011;23834;48.080;11.682;2024-01-30T02:57:14;3.40;;;3.20;;
38023;SDS011;23834;48.080;11.682;2024-01-30T02:59:39;2.60;;;2.50;;
38023;SDS011;23834;48.080;11.682;2024-01-30T03:02:04;3.33;;;3.13;;
38023;SDS011;23834;48.080;11.682;2024-01-30T03:04:30;3.57;;;3.27;;
38023;SDS011;23834;48.080;11.682;2024-01-30T03:06:55;3.13;;;2.93;;
38023;SDS011;23834;48.080;11.682;2024-01-30T03:09:20;2.90;;;2.70;;
38023;SDS011;23834;48.080;11.682;2024-01-30T03:11:45;3.13;;;2.83;;
38023;SDS011;23834;48.080;11.682;2024-01-30T03:14:11;3.73;;;3.43;;
38023;SDS011;23834;48.080;11.682;2024-01-30T03:16:36;3.43;;;3.17;;
38023;SDS011;23834;48.080;11.682;2024-01-30T03:19:02;2.97;;;2.77;;
38023;SDS011;23834;48.080;11.682;2024-01-30T03:21:28;3.23;;;2.93;;
38023;SDS011;23834;48.080;11.682;2024-01-30T03:23:53;2.67;;;2.57;;
38023;SDS011;23834;48.080;11.682;2024-01-30T03:26:18;3.00;;;2.80;;
38023;SDS011;23834;48.080;11.682;2024-01-30T03:28:44;2.77;;;2.63;;
38023;SDS011;23834;48.080;11.682;2024-01-30T03:31:09;3.03;;;2.87;;
38023;SDS011;23834;48.080;11.682;2024-01-30T03:33:34;2.70;;;2.50;;
38023;SDS011;23834;48.080;11.682;2024-01-30T03:36:02;3.20;;;2.80;;
38023;SDS011;23834;48.080;11.682;2024-01-30T03:38:27;3.00;;;2.80;;
38023;SDS011;23834;48.080;11.682;2024-01-30T03:40:52;2.40;;;2.30;;
38023;SDS011;23834;48.080;11.682;2024-01-30T03:43:18;2.70;;;2.57;;
38023;SDS011;23834;48.080;11.682;2024-01-30T03:45:43;3.10;;;2.90;;
38023;SDS011;23834;48.080;11.682;2024-01-30T03:48:08;2.70;;;2.50;;
38023;SDS011;23834;48.080;11.682;2024-01-30T03:50:33;2.40;;;2.20;;
38023;SDS011;23834;48.080;11.682;2024-01-30T03:52:58;3.00;;;2.80;;
38023;SDS011;23834;48.080;11.682;2024-01-30T03:55:24;2.70;;;2.50;;
38023;SDS011;23834;48.080;11.682;2024-01-30T03:57:49;2.93;;;2.50;;
38023;SDS011;23834;48.080;11.682;2024-01-30T04:00:14;2.87;;;2.67;;
38023;SDS011;23834;48.080;11.682;2024-01-30T04:02:39;3.03;;;2.83;;
38023;SDS011;23834;48.080;11.682;2024-01-30T04:05:05;2.80;;;2.60;;
38023;SDS011;23834;48.080;11.682;2024-01-30T04:07:31;2.40;;;2.20;;
38023;SDS011;23834;48.080;11.682;2024-01-30T04:09:56;2.23;;;2.13;;
38023;SDS011;23834;48.080;11.682;2024-01-30T04:12:22;2.40;;;2.30;;
38023;SDS011;23834;48.080;11.682;2024-01-30T04:14:47;3.00;;;2.80;;
38023;SDS011;23834;48.080;11.682;2024-01-30T04:17:12;2.93;;;2.73;;
38023;SDS011;23834;48.080;11.682;2024-01-30T04:19:38;2.70;;;2.50;;
38023;SDS011;23834;48.080;11.682;2024-01-30T04:22:04;2.50;;;2.30;;
38023;SDS011;23834;48.080;11.682;2024-01-30T04:24:29;2.57;;;2.37;;
38023;SDS011;23834;48.080;11.682;2024-01-30T04:26:54;2.60;;;2.40;;
38023;SDS011;23834;48.080;11.682;2024-01-30T04:29:19;2.57;;;2.37;;
38023;SDS011;23834;48.080;11.682;2024-01-30T04:31:45;2.77;;;2.57;;
38023;SDS011;23834;48.080;11.682;2024-01-30T04:34:10;2.53;;;2.33;;
38023;SDS011;23834;48.080;11.682;2024-01-30T04:36:35;2.27;;;2.17;;
38023;SDS011;23834;48.080;11.682;2024-01-30T04:39:00;3.10;;;2.90;;
38023;SDS011;23834;48.080;11.682;2024-01-30T04:41:25;2.60;;;2.40;;
38023;SDS011;23834;48.080;11.682;2024-01-30T04:43:51;2.90;;;2.70;;
38023;SDS011;23834;48.080;11.682;2024-01-30T04:46:16;2.20;;;2.10;;
38023;SDS011;23834;48.080;11.682;2024-01-30T04:48:41;2.63;;;2.43;;
38023;SDS011;23834;48.080;11.682;2024-01-30T04:51:06;2.40;;;2.20;;
38023;SDS011;23834;48.080;11.682;2024-01-30T04:53:31;2.20;;;2.00;;
38023;SDS011;23834;48.080;11.682;2024-01-30T04:55:57;2.23;;;2.03;;
38023;SDS011;23834;48.080;11.682;2024-01-30T04:58:22;2.40;;;2.23;;
38023;SDS011;23834;48.080;11.682;2024-01-30T05:00:47;2.40;;;2.30;;
38023;SDS011;23834;48.080;11.682;2024-01-30T05:03:16;2.43;;;2.23;;
38023;SDS011;23834;48.080;11.682;2024-01-30T05:05:42;2.33;;;2.20;;
38023;SDS011;23834;48.080;11.682;2024-01-30T05:08:07;2.20;;;2.00;;
38023;SDS011;23834;48.080;11.682;2024-01-30T05:10:32;2.10;;;2.00;;
38023;SDS011;23834;48.080;11.682;2024-01-30T05:12:58;2.33;;;2.13;;
38023;SDS011;23834;48.080;11.682;2024-01-30T05:15:23;2.30;;;2.20;;
38023;SDS011;23834;48.080;11.682;2024-01-30T05:17:48;2.27;;;2.07;;
38023;SDS011;23834;48.080;11.682;2024-01-30T05:20:13;2.43;;;2.30;;
38023;SDS011;23834;48.080;11.682;2024-01-30T05:22:38;2.57;;;2.37;;
38023;SDS011;23834;48.080;11.682;2024-01-30T05:25:09;2.27;;;2.17;;
38023;SDS011;23834;48.080;11.682;2024-01-30T05:27:34;2.07;;;1.97;;
38023;SDS011;23834;48.080;11.682;2024-01-30T05:30:00;2.63;;;2.50;;
38023;SDS011;23834;48.080;11.682;2024-01-30T05:32:25;2.20;;;2.10;;
38023;SDS011;23834;48.080;11.682;2024-01-30T05:34:50;2.33;;;2.23;;
38023;SDS011;23834;48.080;11.682;2024-01-30T05:37:15;2.23;;;2.10;;
38023;SDS011;23834;48.080;11.682;2024-01-30T05:39:42;1.87;;;1.77;;
38023;SDS011;23834;48.080;11.682;2024-01-30T05:42:07;2.77;;;2.60;;
38023;SDS011;23834;48.080;11.682;2024-01-30T05:44:32;2.57;;;2.37;;
38023;SDS011;23834;48.080;11.682;2024-01-30T05:46:57;2.73;;;2.53;;
38023;SDS011;23834;48.080;11.682;2024-01-30T05:49:22;2.77;;;2.57;;
38023;SDS011;23834;48.080;11.682;2024-01-30T05:51:47;2.60;;;2.40;;
38023;SDS011;23834;48.080;11.682;2024-01-30T05:54:13;2.77;;;2.57;;
38023;SDS011;23834;48.080;11.682;2024-01-30T05:56:38;3.03;;;2.80;;
38023;SDS011;23834;48.080;11.682;2024-01-30T05:59:03;3.20;;;3.00;;
38023;SDS011;23834;48.080;11.682;2024-01-30T06:01:29;3.17;;;2.97;;
38023;SDS011;23834;48.080;11.682;2024-01-30T06:03:54;3.10;;;2.80;;
38023;SDS011;23834;48.080;11.682;2024-01-30T06:06:20;3.13;;;2.80;;
38023;SDS011;23834;48.080;11.682;2024-01-30T06:08:45;3.43;;;3.13;;
38023;SDS011;23834;48.080;11.682;2024-01-30T06:11:10;3.47;;;3.17;;
38023;SDS011;23834;48.080;11.682;2024-01-30T06:13:36;3.70;;;3.40;;
38023;SDS011;23834;48.080;11.682;2024-01-30T06:16:02;3.03;;;2.83;;
38023;SDS011;23834;48.080;11.682;2024-01-30T06:18:27;3.63;;;3.23;;
38023;SDS011;23834;48.080;11.682;2024-01-30T06:20:54;3.30;;;3.00;;
38023;SDS011;23834;48.080;11.682;2024-01-30T06:23:19;3.43;;;3.13;;
38023;SDS011;23834;48.080;11.682;2024-01-30T06:25:44;4.20;;;3.57;;
38023;SDS011;23834;48.080;11.682;2024-01-30T06:28:09;3.63;;;3.33;;
38023;SDS011;23834;48.080;11.682;2024-01-30T06:30:35;3.80;;;3.50;;
38023;SDS011;23834;48.080;11.682;2024-01-30T06:33:00;3.83;;;3.47;;
38023;SDS011;23834;48.080;11.682;2024-01-30T06:35:25;4.10;;;3.70;;
38023;SDS011;23834;48.080;11.682;2024-01-30T06:37:50;4.23;;;3.70;;
38023;SDS011;23834;48.080;11.682;2024-01-30T06:40:16;3.73;;;3.43;;
38023;SDS011;23834;48.080;11.682;2024-01-30T06:42:41;3.93;;;3.60;;
38023;SDS011;23834;48.080;11.682;2024-01-30T06:45:06;4.20;;;3.50;;
38023;SDS011;23834;48.080;11.682;2024-01-30T06:47:32;3.93;;;3.60;;
38023;SDS011;23834;48.080;11.682;2024-01-30T06:49:58;3.50;;;3.20;;
38023;SDS011;23834;48.080;11.682;2024-01-30T06:52:23;3.30;;;3.00;;
38023;SDS011;23834;48.080;11.682;2024-01-30T06:54:48;3.60;;;3.30;;
38023;SDS011;23834;48.080;11.682;2024-01-30T06:57:13;3.37;;;3.17;;
38023;SDS011;23834;48.080;11.682;2024-01-30T06:59:39;3.77;;;3.47;;
38023;SDS011;23834;48.080;11.682;2024-01-30T07:02:08;3.47;;;3.17;;
38023;SDS011;23834;48.080;11.682;2024-01-30T07:04:33;3.50;;;3.20;;
38023;SDS011;23834;48.080;11.682;2024-01-30T07:06:58;3.50;;;3.20;;
38023;SDS011;23834;48.080;11.682;2024-01-30T07:09:24;3.60;;;3.30;;
38023;SDS011;23834;48.080;11.682;2024-01-30T07:11:49;3.50;;;3.23;;
38023;SDS011;23834;48.080;11.682;2024-01-30T07:14:14;3.47;;;3.27;;
38023;SDS011;23834;48.080;11.682;2024-01-30T07:16:39;3.67;;;3.40;;
38023;SDS011;23834;48.080;11.682;2024-01-30T07:19:04;3.60;;;3.30;;
38023;SDS011;23834;48.080;11.682;2024-01-30T07:21:29;3.47;;;3.13;;
38023;SDS011;23834;48.080;11.682;2024-01-30T07:23:55;3.13;;;2.93;;
38023;SDS011;23834;48.080;11.682;2024-01-30T07:26:20;3.70;;;3.40;;
38023;SDS011;23834;48.080;11.682;2024-01-30T07:28:45;3.20;;;3.00;;
38023;SDS011;23834;48.080;11.682;2024-01-30T07:31:10;3.27;;;3.00;;
38023;SDS011;23834;48.080;11.682;2024-01-30T07:33:36;3.10;;;2.80;;
38023;SDS011;23834;48.080;11.682;2024-01-30T07:36:01;3.00;;;2.80;;
38023;SDS011;23834;48.080;11.682;2024-01-30T07:38:26;3.33;;;3.10;;
38023;SDS011;23834;48.080;11.682;2024-01-30T07:40:51;2.90;;;2.70;;
38023;SDS011;23834;48.080;11.682;2024-01-30T07:43:17;3.00;;;2.80;;
38023;SDS011;23834;48.080;11.682;2024-01-30T07:45:42;3.00;;;2.80;;
38023;SDS011;23834;48.080;11.682;2024-01-30T07:48:07;6.80;;;2.77;;
38023;SDS011;23834;48.080;11.682;2024-01-30T07:50:32;2.97;;;2.73;;
38023;SDS011;23834;48.080;11.682;2024-01-30T07:52:58;2.83;;;2.63;;
38023;SDS011;23834;48.080;11.682;2024-01-30T07:55:24;3.23;;;2.93;;
38023;SDS011;23834;48.080;11.682;2024-01-30T07:57:52;2.80;;;2.60;;
38023;SDS011;23834;48.080;11.682;2024-01-30T08:00:18;2.90;;;2.70;;
38023;SDS011;23834;48.080;11.682;2024-01-30T08:02:43;3.20;;;2.90;;
38023;SDS011;23834;48.080;11.682;2024-01-30T08:05:08;3.00;;;2.67;;
38023;SDS011;23834;48.080;11.682;2024-01-30T08:07:36;2.83;;;2.63;;
38023;SDS011;23834;48.080;11.682;2024-01-30T08:10:01;2.83;;;2.63;;
38023;SDS011;23834;48.080;11.682;2024-01-30T08:12:26;2.50;;;2.30;;
38023;SDS011;23834;48.080;11.682;2024-01-30T08:14:51;2.40;;;2.30;;
38023;SDS011;23834;48.080;11.682;2024-01-30T08:17:16;4.03;;;2.93;;
38023;SDS011;23834;48.080;11.682;2024-01-30T08:19:42;2.83;;;2.63;;
38023;SDS011;23834;48.080;11.682;2024-01-30T08:22:07;3.20;;;2.63;;
38023;SDS011;23834;48.080;11.682;2024-01-30T08:24:32;2.60;;;2.40;;
38023;SDS011;23834;48.080;11.682;2024-01-30T08:26:57;2.53;;;2.33;;
38023;SDS011;23834;48.080;11.682;2024-01-30T08:29:23;2.83;;;2.63;;
38023;SDS011;23834;48.080;11.682;2024-01-30T08:31:48;2.60;;;2.40;;
38023;SDS011;23834;48.080;11.682;2024-01-30T08:34:13;2.80;;;2.60;;
38023;SDS011;23834;48.080;11.682;2024-01-30T08:36:38;2.47;;;2.20;;
38023;SDS011;23834;48.080;11.682;2024-01-30T08:39:03;2.83;;;2.63;;
38023;SDS011;23834;48.080;11.682;2024-01-30T08:41:30;2.80;;;2.50;;
38023;SDS011;23834;48.080;11.682;2024-01-30T08:43:55;2.47;;;2.33;;
38023;SDS011;23834;48.080;11.682;2024-01-30T08:46:20;2.47;;;2.37;;
38023;SDS011;23834;48.080;11.682;2024-01-30T08:48:46;2.70;;;2.50;;
38023;SDS011;23834;48.080;11.682;2024-01-30T08:51:11;2.53;;;2.37;;
38023;SDS011;23834;48.080;11.682;2024-01-30T08:53:37;2.60;;;2.40;;
38023;SDS011;23834;48.080;11.682;2024-01-30T08:56:02;2.77;;;2.57;;
38023;SDS011;23834;48.080;11.682;2024-01-30T08:58:28;2.43;;;2.23;;
38023;SDS011;23834;48.080;11.682;2024-01-30T09:00:53;2.43;;;2.23;;
38023;SDS011;23834;48.080;11.682;2024-01-30T09:03:18;2.40;;;2.13;;
38023;SDS011;23834;48.080;11.682;2024-01-30T09:05:43;2.83;;;2.53;;
38023;SDS011;23834;48.080;11.682;2024-01-30T09:08:08;2.33;;;2.13;;
38023;SDS011;23834;48.080;11.682;2024-01-30T09:10:33;2.03;;;1.93;;
38023;SDS011;23834;48.080;11.682;2024-01-30T09:12:59;2.23;;;2.07;;
38023;SDS011;23834;48.080;11.682;2024-01-30T09:15:24;2.47;;;2.27;;
38023;SDS011;23834;48.080;11.682;2024-01-30T09:17:49;2.37;;;2.17;;
38023;SDS011;23834;48.080;11.682;2024-01-30T09:20:14;2.10;;;2.00;;
38023;SDS011;23834;48.080;11.682;2024-01-30T09:22:39;3.73;;;2.13;;
38023;SDS011;23834;48.080;11.682;2024-01-30T09:25:05;2.20;;;2.03;;
38023;SDS011;23834;48.080;11.682;2024-01-30T09:27:30;2.10;;;2.00;;
38023;SDS011;23834;48.080;11.682;2024-01-30T09:29:56;2.20;;;2.10;;
38023;SDS011;23834;48.080;11.682;2024-01-30T09:32:21;1.83;;;1.73;;
38023;SDS011;23834;48.080;11.682;2024-01-30T09:34:46;2.00;;;1.90;;
38023;SDS011;23834;48.080;11.682;2024-01-30T09:37:11;2.40;;;2.20;;
38023;SDS011;23834;48.080;11.682;2024-01-30T09:39:36;1.67;;;1.57;;
38023;SDS011;23834;48.080;11.682;2024-01-30T09:42:18;2.13;;;2.03;;
38023;SDS011;23834;48.080;11.682;2024-01-30T09:44:45;1.80;;;1.70;;
38023;SDS011;23834;48.080;11.682;2024-01-30T09:47:12;1.87;;;1.77;;
38023;SDS011;23834;48.080;11.682;2024-01-30T09:49:37;1.67;;;1.57;;
38023;SDS011;23834;48.080;11.682;2024-01-30T09:52:03;1.70;;;1.60;;
38023;SDS011;23834;48.080;11.682;2024-01-30T09:54:31;1.80;;;1.53;;
38023;SDS011;23834;48.080;11.682;2024-01-30T09:56:57;1.70;;;1.60;;
38023;SDS011;23834;48.080;11.682;2024-01-30T09:59:22;1.73;;;1.63;;
38023;SDS011;23834;48.080;11.682;2024-01-30T10:01:47;1.67;;;1.50;;
38023;SDS011;23834;48.080;11.682;2024-01-30T10:04:12;1.70;;;1.60;;
38023;SDS011;23834;48.080;11.682;2024-01-30T10:06:37;1.80;;;1.70;;
38023;SDS011;23834;48.080;11.682;2024-01-30T10:09:03;1.40;;;1.30;;
38023;SDS011;23834;48.080;11.682;2024-01-30T10:11:29;1.70;;;1.60;;
38023;SDS011;23834;48.080;11.682;2024-01-30T10:13:54;1.80;;;1.40;;
38023;SDS011;23834;48.080;11.682;2024-01-30T10:16:19;1.50;;;1.40;;
38023;SDS011;23834;48.080;11.682;2024-01-30T10:18:44;1.87;;;1.67;;
38023;SDS011;23834;48.080;11.682;2024-01-30T10:21:09;1.60;;;1.50;;
38023;SDS011;23834;48.080;11.682;2024-01-30T10:23:35;1.13;;;1.13;;
38023;SDS011;23834;48.080;11.682;2024-01-30T10:26:00;1.70;;;1.60;;
38023;SDS011;23834;48.080;11.682;2024-01-30T10:28:27;1.73;;;1.63;;
38023;SDS011;23834;48.080;11.682;2024-01-30T10:31:00;1.30;;;1.30;;
38023;SDS011;23834;48.080;11.682;2024-01-30T10:33:29;1.90;;;1.53;;
38023;SDS011;23834;48.080;11.682;2024-01-30T10:36:01;1.40;;;1.30;;
38023;SDS011;23834;48.080;11.682;2024-01-30T10:38:28;1.50;;;1.40;;
38023;SDS011;23834;48.080;11.682;2024-01-30T10:40:55;1.50;;;1.40;;
38023;SDS011;23834;48.080;11.682;2024-01-30T10:43:21;1.20;;;1.20;;
38023;SDS011;23834;48.080;11.682;2024-01-30T10:45:46;1.23;;;1.23;;
38023;SDS011;23834;48.080;11.682;2024-01-30T10:48:14;1.60;;;1.50;;
38023;SDS011;23834;48.080;11.682;2024-01-30T10:50:41;1.30;;;1.30;;
38023;SDS011;23834;48.080;11.682;2024-01-30T10:53:07;1.07;;;1.07;;
38023;SDS011;23834;48.080;11.682;2024-01-30T10:55:34;1.27;;;1.17;;
38023;SDS011;23834;48.080;11.682;2024-01-30T10:57:59;1.10;;;1.10;;
38023;SDS011;23834;48.080;11.682;2024-01-30T11:00:26;1.30;;;1.20;;
38023;SDS011;23834;48.080;11.682;2024-01-30T11:02:51;1.23;;;1.10;;
38023;SDS011;23834;48.080;11.682;2024-01-30T11:05:23;1.50;;;1.40;;
38023;SDS011;23834;48.080;11.682;2024-01-30T11:07:48;1.10;;;1.00;;
38023;SDS011;23834;48.080;11.682;2024-01-30T11:10:14;1.10;;;1.10;;
38023;SDS011;23834;48.080;11.682;2024-01-30T11:12:40;1.27;;;1.17;;
38023;SDS011;23834;48.080;11.682;2024-01-30T11:15:14;1.50;;;1.37;;
38023;SDS011;23834;48.080;11.682;2024-01-30T11:20:14;1.30;;;1.20;;
38023;SDS011;23834;48.080;11.682;2024-01-30T11:22:41;1.10;;;1.10;;
38023;SDS011;23834;48.080;11.682;2024-01-30T11:25:06;1.00;;;1.00;;
38023;SDS011;23834;48.080;11.682;2024-01-30T11:27:32;1.10;;;0.97;;
38023;SDS011;23834;48.080;11.682;2024-01-30T11:30:01;1.10;;;1.10;;
38023;SDS011;23834;48.080;11.682;2024-01-30T11:32:27;0.60;;;0.60;;
38023;SDS011;23834;48.080;11.682;2024-01-30T11:34:53;0.77;;;0.77;;
38023;SDS011;23834;48.080;11.682;2024-01-30T11:37:18;1.20;;;1.10;;
38023;SDS011;23834;48.080;11.682;2024-01-30T11:39:45;0.90;;;0.90;;
38023;SDS011;23834;48.080;11.682;2024-01-30T11:42:11;1.13;;;1.03;;
38023;SDS011;23834;48.080;11.682;2024-01-30T11:44:36;1.20;;;1.10;;
38023;SDS011;23834;48.080;11.682;2024-01-30T11:47:01;1.03;;;0.93;;
38023;SDS011;23834;48.080;11.682;2024-01-30T11:49:28;1.10;;;1.00;;
38023;SDS011;23834;48.080;11.682;2024-01-30T11:51:53;1.00;;;1.00;;
38023;SDS011;23834;48.080;11.682;2024-01-30T11:54:19;0.90;;;0.90;;
38023;SDS011;23834;48.080;11.682;2024-01-30T11:56:44;1.00;;;0.90;;
38023;SDS011;23834;48.080;11.682;2024-01-30T11:59:09;0.90;;;0.90;;
38023;SDS011;23834;48.080;11.682;2024-01-30T12:01:34;0.87;;;0.87;;
38023;SDS011;23834;48.080;11.682;2024-01-30T12:04:00;1.07;;;0.80;;
38023;SDS011;23834;48.080;11.682;2024-01-30T12:06:25;0.90;;;0.90;;
38023;SDS011;23834;48.080;11.682;2024-01-30T12:08:57;0.90;;;0.90;;
38023;SDS011;23834;48.080;11.682;2024-01-30T12:11:23;1.03;;;1.00;;
38023;SDS011;23834;48.080;11.682;2024-01-30T12:13:49;0.90;;;0.90;;
38023;SDS011;23834;48.080;11.682;2024-01-30T12:16:14;0.80;;;0.80;;
38023;SDS011;23834;48.080;11.682;2024-01-30T12:18:39;0.90;;;0.90;;
38023;SDS011;23834;48.080;11.682;2024-01-30T12:21:05;1.10;;;0.77;;
38023;SDS011;23834;48.080;11.682;2024-01-30T12:23:30;0.80;;;0.80;;
38023;SDS011;23834;48.080;11.682;2024-01-30T12:25:55;0.90;;;0.90;;
38023;SDS011;23834;48.080;11.682;2024-01-30T12:28:21;0.60;;;0.60;;
38023;SDS011;23834;48.080;11.682;2024-01-30T12:30:46;0.83;;;0.83;;
38023;SDS011;23834;48.080;11.682;2024-01-30T12:33:17;0.77;;;0.77;;
38023;SDS011;23834;48.080;11.682;2024-01-30T12:35:46;0.80;;;0.80;;
38023;SDS011;23834;48.080;11.682;2024-01-30T12:38:12;0.67;;;0.67;;
38023;SDS011;23834;48.080;11.682;2024-01-30T12:40:38;0.73;;;0.73;;
38023;SDS011;23834;48.080;11.682;2024-01-30T12:43:03;0.77;;;0.77;;
38023;SDS011;23834;48.080;11.682;2024-01-30T12:45:28;0.77;;;0.77;;
38023;SDS011;23834;48.080;11.682;2024-01-30T12:47:55;1.10;;;1.00;;
38023;SDS011;23834;48.080;11.682;2024-01-30T12:50:20;0.77;;;0.77;;
38023;SDS011;23834;48.080;11.682;2024-01-30T12:52:45;1.13;;;1.00;;
38023;SDS011;23834;48.080;11.682;2024-01-30T12:55:10;0.87;;;0.87;;
38023;SDS011;23834;48.080;11.682;2024-01-30T12:57:36;0.60;;;0.60;;
38023;SDS011;23834;48.080;11.682;2024-01-30T13:00:01;1.00;;;1.00;;
38023;SDS011;23834;48.080;11.682;2024-01-30T13:02:26;0.80;;;0.80;;
38023;SDS011;23834;48.080;11.682;2024-01-30T13:04:55;0.90;;;0.90;;
38023;SDS011;23834;48.080;11.682;2024-01-30T13:07:20;0.70;;;0.70;;
38023;SDS011;23834;48.080;11.682;2024-01-30T13:09:45;0.73;;;0.73;;
38023;SDS011;23834;48.080;11.682;2024-01-30T13:12:10;0.90;;;0.90;;
38023;SDS011;23834;48.080;11.682;2024-01-30T13:14:36;0.80;;;0.80;;
38023;SDS011;23834;48.080;11.682;2024-01-30T13:17:01;2.00;;;0.97;;
38023;SDS011;23834;48.080;11.682;2024-01-30T13:19:26;0.63;;;0.60;;
38023;SDS011;23834;48.080;11.682;2024-01-30T13:21:52;1.13;;;0.80;;
38023;SDS011;23834;48.080;11.682;2024-01-30T13:24:17;0.70;;;0.70;;
38023;SDS011;23834;48.080;11.682;2024-01-30T13:26:46;0.53;;;0.53;;
38023;SDS011;23834;48.080;11.682;2024-01-30T13:29:11;0.80;;;0.70;;
38023;SDS011;23834;48.080;11.682;2024-01-30T13:31:36;0.80;;;0.80;;
38023;SDS011;23834;48.080;11.682;2024-01-30T13:34:01;0.80;;;0.80;;
38023;SDS011;23834;48.080;11.682;2024-01-30T13:36:26;0.70;;;0.70;;
38023;SDS011;23834;48.080;11.682;2024-01-30T13:38:52;0.87;;;0.87;;
38023;SDS011;23834;48.080;11.682;2024-01-30T13:41:17;0.93;;;0.90;;
38023;SDS011;23834;48.080;11.682;2024-01-30T13:43:43;0.97;;;0.83;;
38023;SDS011;23834;48.080;11.682;2024-01-30T13:46:08;0.80;;;0.80;;
38023;SDS011;23834;48.080;11.682;2024-01-30T13:48:33;0.87;;;0.87;;
38023;SDS011;23834;48.080;11.682;2024-01-30T13:50:58;0.70;;;0.70;;
38023;SDS011;23834;48.080;11.682;2024-01-30T13:53:24;1.00;;;0.70;;
38023;SDS011;23834;48.080;11.682;2024-01-30T13:55:49;0.80;;;0.77;;
38023;SDS011;23834;48.080;11.682;2024-01-30T13:58:14;0.60;;;0.60;;
38023;SDS011;23834;48.080;11.682;2024-01-30T14:00:40;0.80;;;0.80;;
38023;SDS011;23834;48.080;11.682;2024-01-30T14:03:05;0.67;;;0.63;;
38023;SDS011;23834;48.080;11.682;2024-01-30T14:05:30;0.77;;;0.77;;
38023;SDS011;23834;48.080;11.682;2024-01-30T14:07:56;0.80;;;0.80;;
38023;SDS011;23834;48.080;11.682;2024-01-30T14:10:22;0.60;;;0.60;;
38023;SDS011;23834;48.080;11.682;2024-01-30T14:12:47;0.60;;;0.60;;
38023;SDS011;23834;48.080;11.682;2024-01-30T14:15:15;0.80;;;0.73;;
38023;SDS011;23834;48.080;11.682;2024-01-30T14:17:43;0.80;;;0.80;;
38023;SDS011;23834;48.080;11.682;2024-01-30T14:20:08;0.87;;;0.87;;
38023;SDS011;23834;48.080;11.682;2024-01-30T14:22:34;0.80;;;0.80;;
38023;SDS011;23834;48.080;11.682;2024-01-30T14:24:59;0.70;;;0.67;;